sensor_id;sensor_type;location;lat;lon;timestamp;pressure;altitude;pressure_sealevel;temperature;humidity
49178;BME280;35016;55.674;37.468;2024-03-07T00:01:12;99895.66;;;-3.69;38.85
49178;BME280;35016;55.674;37.468;2024-03-07T00:03:39;99884.41;;;-3.71;38.56
49178;BME280;35016;55.674;37.468;2024-03-07T00:06:07;99893.00;;;-3.69;39.05
49178;BME280;35016;55.674;37.468;2024-03-07T00:08:35;99877.44;;;-3.72;39.38
49178;BME280;35016;55.674;37.468;2024-03-07T00:11:04;99881.91;;;-3.73;38.97
49178;BME280;35016;55.674;37.468;2024-03-07T00:13:32;99876.28;;;-3.70;38.90
49178;BME280;35016;55.674;37.468;2024-03-07T00:16:05;99887.72;;;-3.69;38.93
49178;BME280;35016;55.674;37.468;2024-03-07T00:18:32;99886.22;;;-3.72;39.45
49178;BME280;35016;55.674;37.468;2024-03-07T00:20:59;99882.19;;;-3.76;38.82
49178;BME280;35016;55.674;37.468;2024-03-07T00:23:26;99882.34;;;-3.78;39.07
49178;BME280;35016;55.674;37.468;2024-03-07T00:25:54;99877.38;;;-3.81;39.38
49178;BME280;35016;55.674;37.468;2024-03-07T00:28:21;99881.00;;;-3.82;39.17
49178;BME280;35016;55.674;37.468;2024-03-07T00:30:49;99878.69;;;-3.85;39.44
49178;BME280;35016;55.674;37.468;2024-03-07T00:33:16;99878.53;;;-3.83;39.84
49178;BME280;35016;55.674;37.468;2024-03-07T00:35:43;99875.19;;;-3.85;39.44
49178;BME280;35016;55.674;37.468;2024-03-07T00:38:11;99871.88;;;-3.87;39.17
49178;BME280;35016;55.674;37.468;2024-03-07T00:40:39;99873.03;;;-3.90;39.72
49178;BME280;35016;55.674;37.468;2024-03-07T00:43:06;99876.81;;;-3.92;39.55
49178;BME280;35016;55.674;37.468;2024-03-07T00:45:33;99870.84;;;-3.94;39.66
49178;BME280;35016;55.674;37.468;2024-03-07T00:48:00;99873.81;;;-3.97;39.05
49178;BME280;35016;55.674;37.468;2024-03-07T00:50:28;99864.84;;;-4.04;39.49
49178;BME280;35016;55.674;37.468;2024-03-07T00:52:57;99866.28;;;-4.10;39.72
49178;BME280;35016;55.674;37.468;2024-03-07T00:55:26;99866.06;;;-4.17;39.87
49178;BME280;35016;55.674;37.468;2024-03-07T00:57:53;99861.78;;;-4.18;39.82
49178;BME280;35016;55.674;37.468;2024-03-07T01:00:21;99863.59;;;-4.18;40.21
49178;BME280;35016;55.674;37.468;2024-03-07T01:02:48;99861.41;;;-4.23;39.74
49178;BME280;35016;55.674;37.468;2024-03-07T01:05:15;99861.72;;;-4.26;40.36
49178;BME280;35016;55.674;37.468;2024-03-07T01:07:45;99860.22;;;-4.28;40.64
49178;BME280;35016;55.674;37.468;2024-03-07T01:10:16;99854.25;;;-4.30;40.39
49178;BME280;35016;55.674;37.468;2024-03-07T01:12:44;99853.72;;;-4.34;40.19
49178;BME280;35016;55.674;37.468;2024-03-07T01:15:11;99862.63;;;-4.35;40.46
49178;BME280;35016;55.674;37.468;2024-03-07T01:17:39;99851.69;;;-4.40;40.22
49178;BME280;35016;55.674;37.468;2024-03-07T01:20:08;99853.13;;;-4.46;40.62
49178;BME280;35016;55.674;37.468;2024-03-07T01:22:36;99850.81;;;-4.49;40.06
49178;BME280;35016;55.674;37.468;2024-03-07T01:25:03;99853.44;;;-4.49;40.83
49178;BME280;35016;55.674;37.468;2024-03-07T01:27:34;99855.28;;;-4.49;40.30
49178;BME280;35016;55.674;37.468;2024-03-07T01:30:02;99849.31;;;-4.51;40.31
49178;BME280;35016;55.674;37.468;2024-03-07T01:32:39;99836.03;;;-4.59;40.92
49178;BME280;35016;55.674;37.468;2024-03-07T01:35:14;99856.88;;;-4.56;40.72
49178;BME280;35016;55.674;37.468;2024-03-07T01:37:41;99853.41;;;-4.57;40.95
49178;BME280;35016;55.674;37.468;2024-03-07T01:40:09;99846.91;;;-4.62;41.17
49178;BME280;35016;55.674;37.468;2024-03-07T01:42:40;99857.63;;;-4.64;40.75
49178;BME280;35016;55.674;37.468;2024-03-07T01:45:07;99850.00;;;-4.67;40.82
49178;BME280;35016;55.674;37.468;2024-03-07T01:47:36;99854.09;;;-4.73;40.76
49178;BME280;35016;55.674;37.468;2024-03-07T01:50:07;99842.16;;;-4.77;41.13
49178;BME280;35016;55.674;37.468;2024-03-07T01:52:40;99842.31;;;-4.78;41.15
49178;BME280;35016;55.674;37.468;2024-03-07T01:55:09;99839.97;;;-4.81;41.16
49178;BME280;35016;55.674;37.468;2024-03-07T01:57:49;99838.78;;;-4.87;41.25
49178;BME280;35016;55.674;37.468;2024-03-07T02:00:18;99830.16;;;-4.89;41.36
49178;BME280;35016;55.674;37.468;2024-03-07T02:02:45;99834.78;;;-4.91;41.21
49178;BME280;35016;55.674;37.468;2024-03-07T02:05:13;99825.16;;;-4.92;41.05
49178;BME280;35016;55.674;37.468;2024-03-07T02:07:43;99847.16;;;-4.91;41.13
49178;BME280;35016;55.674;37.468;2024-03-07T02:10:10;99829.75;;;-4.94;41.25
49178;BME280;35016;55.674;37.468;2024-03-07T02:12:37;99827.28;;;-4.95;41.29
49178;BME280;35016;55.674;37.468;2024-03-07T02:15:22;99808.69;;;-5.04;41.13
49178;BME280;35016;55.674;37.468;2024-03-07T02:17:50;99823.44;;;-5.01;41.05
49178;BME280;35016;55.674;37.468;2024-03-07T02:20:17;99822.75;;;-5.03;41.13
49178;BME280;35016;55.674;37.468;2024-03-07T02:22:45;99824.41;;;-5.02;41.45
49178;BME280;35016;55.674;37.468;2024-03-07T02:25:12;99821.09;;;-5.04;41.44
49178;BME280;35016;55.674;37.468;2024-03-07T02:27:40;99805.84;;;-5.10;41.49
49178;BME280;35016;55.674;37.468;2024-03-07T02:30:07;99801.00;;;-5.15;41.54
49178;BME280;35016;55.674;37.468;2024-03-07T02:32:38;99820.88;;;-5.11;41.80
49178;BME280;35016;55.674;37.468;2024-03-07T02:35:06;99808.63;;;-5.12;41.55
49178;BME280;35016;55.674;37.468;2024-03-07T02:37:42;99807.13;;;-5.14;41.56
49178;BME280;35016;55.674;37.468;2024-03-07T02:40:13;99792.47;;;-5.26;41.55
49178;BME280;35016;55.674;37.468;2024-03-07T02:42:42;99809.91;;;-5.16;41.33
49178;BME280;35016;55.674;37.468;2024-03-07T02:45:09;99798.72;;;-5.27;41.40
49178;BME280;35016;55.674;37.468;2024-03-07T02:47:40;99810.38;;;-5.20;41.50
49178;BME280;35016;55.674;37.468;2024-03-07T02:50:09;99804.94;;;-5.19;42.07
49178;BME280;35016;55.674;37.468;2024-03-07T02:52:37;99812.16;;;-5.21;41.61
49178;BME280;35016;55.674;37.468;2024-03-07T02:55:06;99800.38;;;-5.26;41.49
49178;BME280;35016;55.674;37.468;2024-03-07T02:57:37;99789.22;;;-5.38;41.44
49178;BME280;35016;55.674;37.468;2024-03-07T03:00:05;99798.81;;;-5.37;41.57
49178;BME280;35016;55.674;37.468;2024-03-07T03:02:47;99807.56;;;-5.37;41.71
49178;BME280;35016;55.674;37.468;2024-03-07T03:05:15;99787.03;;;-5.43;41.85
49178;BME280;35016;55.674;37.468;2024-03-07T03:07:43;99798.13;;;-5.39;41.66
49178;BME280;35016;55.674;37.468;2024-03-07T03:10:21;99795.63;;;-5.41;41.65
49178;BME280;35016;55.674;37.468;2024-03-07T03:12:53;99794.50;;;-5.38;42.08
49178;BME280;35016;55.674;37.468;2024-03-07T03:15:21;99782.72;;;-5.44;41.88
49178;BME280;35016;55.674;37.468;2024-03-07T03:17:49;99788.00;;;-5.44;41.99
49178;BME280;35016;55.674;37.468;2024-03-07T03:20:16;99782.47;;;-5.50;41.75
49178;BME280;35016;55.674;37.468;2024-03-07T03:22:54;99784.34;;;-5.61;41.78
49178;BME280;35016;55.674;37.468;2024-03-07T03:25:24;99801.03;;;-5.60;42.09
49178;BME280;35016;55.674;37.468;2024-03-07T03:27:53;99787.59;;;-5.67;41.93
49178;BME280;35016;55.674;37.468;2024-03-07T03:30:20;99790.63;;;-5.62;41.92
49178;BME280;35016;55.674;37.468;2024-03-07T03:32:48;99797.03;;;-5.64;42.11
49178;BME280;35016;55.674;37.468;2024-03-07T03:35:16;99793.72;;;-5.66;41.91
49178;BME280;35016;55.674;37.468;2024-03-07T03:37:43;99799.28;;;-5.69;42.05
49178;BME280;35016;55.674;37.468;2024-03-07T03:40:11;99807.22;;;-5.69;42.16
49178;BME280;35016;55.674;37.468;2024-03-07T03:42:41;99802.38;;;-5.74;42.37
49178;BME280;35016;55.674;37.468;2024-03-07T03:45:09;99790.31;;;-5.76;41.98
49178;BME280;35016;55.674;37.468;2024-03-07T03:47:42;99799.75;;;-5.74;42.38
49178;BME280;35016;55.674;37.468;2024-03-07T03:50:11;99801.97;;;-5.79;42.41
49178;BME280;35016;55.674;37.468;2024-03-07T03:52:39;99805.31;;;-5.77;42.12
49178;BME280;35016;55.674;37.468;2024-03-07T03:55:08;99790.72;;;-5.81;42.09
49178;BME280;35016;55.674;37.468;2024-03-07T03:57:40;99780.41;;;-5.92;42.30
49178;BME280;35016;55.674;37.468;2024-03-07T04:00:10;99786.72;;;-5.85;42.23
49178;BME280;35016;55.674;37.468;2024-03-07T04:02:44;99778.81;;;-5.85;42.59
49178;BME280;35016;55.674;37.468;2024-03-07T04:05:17;99800.31;;;-5.80;42.39
49178;BME280;35016;55.674;37.468;2024-03-07T04:07:45;99788.75;;;-5.79;42.64
49178;BME280;35016;55.674;37.468;2024-03-07T04:10:15;99793.94;;;-5.77;42.51
49178;BME280;35016;55.674;37.468;2024-03-07T04:12:44;99780.56;;;-5.76;42.62
49178;BME280;35016;55.674;37.468;2024-03-07T04:15:13;99781.41;;;-5.75;42.54
49178;BME280;35016;55.674;37.468;2024-03-07T04:17:45;99777.94;;;-5.76;42.52
49178;BME280;35016;55.674;37.468;2024-03-07T04:20:14;99782.47;;;-5.68;42.55
49178;BME280;35016;55.674;37.468;2024-03-07T04:22:46;99766.63;;;-5.68;42.53
49178;BME280;35016;55.674;37.468;2024-03-07T04:25:13;99769.50;;;-5.62;42.37
49178;BME280;35016;55.674;37.468;2024-03-07T04:27:42;99767.38;;;-5.58;42.31
49178;BME280;35016;55.674;37.468;2024-03-07T04:30:09;99757.94;;;-5.61;42.26
49178;BME280;35016;55.674;37.468;2024-03-07T04:32:38;99772.88;;;-5.51;42.29
49178;BME280;35016;55.674;37.468;2024-03-07T04:35:06;99769.81;;;-5.47;42.07
49178;BME280;35016;55.674;37.468;2024-03-07T04:37:35;99770.50;;;-5.45;41.93
49178;BME280;35016;55.674;37.468;2024-03-07T04:40:07;99770.19;;;-5.42;42.27
49178;BME280;35016;55.674;37.468;2024-03-07T04:42:47;99767.09;;;-5.37;42.07
49178;BME280;35016;55.674;37.468;2024-03-07T04:45:17;99761.81;;;-5.37;42.12
49178;BME280;35016;55.674;37.468;2024-03-07T04:47:46;99770.13;;;-5.32;41.89
49178;BME280;35016;55.674;37.468;2024-03-07T04:50:15;99765.88;;;-5.25;41.95
49178;BME280;35016;55.674;37.468;2024-03-07T04:52:46;99762.09;;;-5.22;42.08
49178;BME280;35016;55.674;37.468;2024-03-07T04:55:19;99769.28;;;-5.15;41.74
49178;BME280;35016;55.674;37.468;2024-03-07T04:58:14;99754.78;;;-5.11;42.12
49178;BME280;35016;55.674;37.468;2024-03-07T05:00:42;99760.28;;;-5.04;42.40
49178;BME280;35016;55.674;37.468;2024-03-07T05:03:09;99762.81;;;-4.94;42.01
49178;BME280;35016;55.674;37.468;2024-03-07T05:05:36;99757.94;;;-4.89;41.89
49178;BME280;35016;55.674;37.468;2024-03-07T05:08:04;99752.84;;;-4.83;42.05
49178;BME280;35016;55.674;37.468;2024-03-07T05:10:31;99754.03;;;-4.77;41.50
49178;BME280;35016;55.674;37.468;2024-03-07T05:12:58;99754.09;;;-4.69;41.75
49178;BME280;35016;55.674;37.468;2024-03-07T05:15:25;99759.28;;;-4.59;41.56
49178;BME280;35016;55.674;37.468;2024-03-07T05:17:53;99757.84;;;-4.54;41.83
49178;BME280;35016;55.674;37.468;2024-03-07T05:20:23;99762.19;;;-4.45;41.90
49178;BME280;35016;55.674;37.468;2024-03-07T05:22:50;99759.72;;;-4.38;41.46
49178;BME280;35016;55.674;37.468;2024-03-07T05:25:19;99758.13;;;-4.31;41.22
49178;BME280;35016;55.674;37.468;2024-03-07T05:27:46;99759.97;;;-4.23;41.37
49178;BME280;35016;55.674;37.468;2024-03-07T05:30:14;99754.72;;;-4.15;41.70
49178;BME280;35016;55.674;37.468;2024-03-07T05:32:43;99756.56;;;-4.08;41.02
49178;BME280;35016;55.674;37.468;2024-03-07T05:35:11;99751.31;;;-3.99;41.11
49178;BME280;35016;55.674;37.468;2024-03-07T05:37:44;99753.16;;;-3.92;40.71
49178;BME280;35016;55.674;37.468;2024-03-07T05:40:14;99744.38;;;-3.92;40.88
49178;BME280;35016;55.674;37.468;2024-03-07T05:42:45;99756.66;;;-3.83;41.29
49178;BME280;35016;55.674;37.468;2024-03-07T05:45:12;99757.66;;;-3.76;41.05
49178;BME280;35016;55.674;37.468;2024-03-07T05:47:44;99756.06;;;-3.69;40.78
49178;BME280;35016;55.674;37.468;2024-03-07T05:50:15;99754.75;;;-3.65;41.08
49178;BME280;35016;55.674;37.468;2024-03-07T05:52:46;99749.28;;;-3.55;40.59
49178;BME280;35016;55.674;37.468;2024-03-07T05:55:15;99751.81;;;-3.46;41.23
49178;BME280;35016;55.674;37.468;2024-03-07T05:57:45;99742.22;;;-3.38;40.24
49178;BME280;35016;55.674;37.468;2024-03-07T06:00:15;99741.22;;;-3.29;40.28
49178;BME280;35016;55.674;37.468;2024-03-07T06:02:42;99733.41;;;-3.23;40.79
49178;BME280;35016;55.674;37.468;2024-03-07T06:05:10;99738.91;;;-3.16;40.54
49178;BME280;35016;55.674;37.468;2024-03-07T06:07:43;99723.00;;;-3.16;40.37
49178;BME280;35016;55.674;37.468;2024-03-07T06:10:13;99734.09;;;-3.04;40.34
49178;BME280;35016;55.674;37.468;2024-03-07T06:12:45;99728.13;;;-2.98;40.36
49178;BME280;35016;55.674;37.468;2024-03-07T06:15:16;99730.09;;;-2.92;40.70
49178;BME280;35016;55.674;37.468;2024-03-07T06:17:43;99738.59;;;-2.89;40.53
49178;BME280;35016;55.674;37.468;2024-03-07T06:20:14;99728.13;;;-2.82;40.35
49178;BME280;35016;55.674;37.468;2024-03-07T06:22:52;99729.44;;;-2.78;40.64
49178;BME280;35016;55.674;37.468;2024-03-07T06:25:23;99725.75;;;-2.69;40.25
49178;BME280;35016;55.674;37.468;2024-03-07T06:28:01;99728.56;;;-2.62;40.07
49178;BME280;35016;55.674;37.468;2024-03-07T06:30:40;99720.94;;;-2.57;40.08
49178;BME280;35016;55.674;37.468;2024-03-07T06:33:11;99728.72;;;-2.47;39.99
49178;BME280;35016;55.674;37.468;2024-03-07T06:35:40;99728.84;;;-2.41;40.12
49178;BME280;35016;55.674;37.468;2024-03-07T06:38:11;99734.00;;;-2.39;40.23
49178;BME280;35016;55.674;37.468;2024-03-07T06:40:40;99732.00;;;-2.29;40.16
49178;BME280;35016;55.674;37.468;2024-03-07T06:43:08;99733.66;;;-2.28;40.12
49178;BME280;35016;55.674;37.468;2024-03-07T06:45:40;99717.06;;;-2.30;40.12
49178;BME280;35016;55.674;37.468;2024-03-07T06:48:12;99704.91;;;-2.33;40.48
49178;BME280;35016;55.674;37.468;2024-03-07T06:50:41;99702.59;;;-2.28;40.03
49178;BME280;35016;55.674;37.468;2024-03-07T06:53:11;99718.81;;;-2.14;40.02
49178;BME280;35016;55.674;37.468;2024-03-07T06:55:38;99720.41;;;-2.05;40.00
49178;BME280;35016;55.674;37.468;2024-03-07T06:58:06;99710.16;;;-2.08;40.16
49178;BME280;35016;55.674;37.468;2024-03-07T07:00:35;99720.75;;;-2.00;39.79
49178;BME280;35016;55.674;37.468;2024-03-07T07:03:05;99704.78;;;-1.92;39.91
49178;BME280;35016;55.674;37.468;2024-03-07T07:05:33;99707.72;;;-1.87;39.73
49178;BME280;35016;55.674;37.468;2024-03-07T07:08:01;99703.72;;;-1.83;39.86
49178;BME280;35016;55.674;37.468;2024-03-07T07:10:28;99706.31;;;-1.75;39.72
49178;BME280;35016;55.674;37.468;2024-03-07T07:12:56;99701.81;;;-1.66;39.80
49178;BME280;35016;55.674;37.468;2024-03-07T07:15:23;99700.91;;;-1.59;39.28
49178;BME280;35016;55.674;37.468;2024-03-07T07:17:51;99705.81;;;-1.47;39.46
49178;BME280;35016;55.674;37.468;2024-03-07T07:20:19;99705.59;;;-1.38;39.35
49178;BME280;35016;55.674;37.468;2024-03-07T07:22:47;99701.50;;;-1.26;39.45
49178;BME280;35016;55.674;37.468;2024-03-07T07:25:14;99700.59;;;-1.18;39.21
49178;BME280;35016;55.674;37.468;2024-03-07T07:27:45;99694.41;;;-1.10;39.29
49178;BME280;35016;55.674;37.468;2024-03-07T07:30:14;99695.81;;;-1.00;38.90
49178;BME280;35016;55.674;37.468;2024-03-07T07:32:42;99703.72;;;-0.91;39.18
49178;BME280;35016;55.674;37.468;2024-03-07T07:35:11;99698.34;;;-0.83;39.07
49178;BME280;35016;55.674;37.468;2024-03-07T07:37:39;99697.69;;;-0.71;39.22
49178;BME280;35016;55.674;37.468;2024-03-07T07:40:11;99701.41;;;-0.57;38.90
49178;BME280;35016;55.674;37.468;2024-03-07T07:42:41;99691.94;;;-0.45;39.00
49178;BME280;35016;55.674;37.468;2024-03-07T07:45:10;99692.66;;;-0.36;38.99
49178;BME280;35016;55.674;37.468;2024-03-07T07:47:44;99686.44;;;-0.28;39.14
49178;BME280;35016;55.674;37.468;2024-03-07T07:50:16;99682.19;;;-0.23;38.55
49178;BME280;35016;55.674;37.468;2024-03-07T07:52:48;99677.78;;;-0.16;38.79
49178;BME280;35016;55.674;37.468;2024-03-07T07:55:17;99677.47;;;-0.06;38.86
49178;BME280;35016;55.674;37.468;2024-03-07T07:57:45;99672.50;;;0.06;38.74
49178;BME280;35016;55.674;37.468;2024-03-07T08:00:17;99676.88;;;0.13;38.60
49178;BME280;35016;55.674;37.468;2024-03-07T08:02:55;99664.06;;;0.23;38.47
49178;BME280;35016;55.674;37.468;2024-03-07T08:05:25;99666.44;;;0.33;38.66
49178;BME280;35016;55.674;37.468;2024-03-07T08:07:54;99662.44;;;0.44;38.81
49178;BME280;35016;55.674;37.468;2024-03-07T08:10:24;99651.44;;;0.53;38.49
49178;BME280;35016;55.674;37.468;2024-03-07T08:12:51;99655.66;;;0.63;38.38
49178;BME280;35016;55.674;37.468;2024-03-07T08:15:19;99651.63;;;0.73;38.52
49178;BME280;35016;55.674;37.468;2024-03-07T08:17:47;99648.44;;;0.84;38.45
49178;BME280;35016;55.674;37.468;2024-03-07T08:20:17;99643.72;;;0.86;38.38
49178;BME280;35016;55.674;37.468;2024-03-07T08:22:49;99648.38;;;0.99;38.43
49178;BME280;35016;55.674;37.468;2024-03-07T08:25:22;99647.59;;;1.05;38.40
49178;BME280;35016;55.674;37.468;2024-03-07T08:27:53;99644.53;;;1.08;38.30
49178;BME280;35016;55.674;37.468;2024-03-07T08:30:22;99634.66;;;1.09;38.04
49178;BME280;35016;55.674;37.468;2024-03-07T08:32:51;99642.16;;;1.20;38.33
49178;BME280;35016;55.674;37.468;2024-03-07T08:35:19;99642.59;;;1.23;38.38
49178;BME280;35016;55.674;37.468;2024-03-07T08:37:49;99646.50;;;1.28;37.87
49178;BME280;35016;55.674;37.468;2024-03-07T08:40:22;99640.97;;;1.29;37.82
49178;BME280;35016;55.674;37.468;2024-03-07T08:42:55;99637.31;;;1.37;38.17
49178;BME280;35016;55.674;37.468;2024-03-07T08:45:25;99638.78;;;1.39;38.10
49178;BME280;35016;55.674;37.468;2024-03-07T08:47:54;99640.84;;;1.44;37.72
49178;BME280;35016;55.674;37.468;2024-03-07T08:50:23;99628.78;;;1.48;37.76
49178;BME280;35016;55.674;37.468;2024-03-07T08:52:50;99633.94;;;1.56;37.82
49178;BME280;35016;55.674;37.468;2024-03-07T08:55:21;99630.06;;;1.65;37.87
49178;BME280;35016;55.674;37.468;2024-03-07T08:57:55;99624.38;;;1.75;37.63
49178;BME280;35016;55.674;37.468;2024-03-07T09:00:25;99625.84;;;1.84;37.46
49178;BME280;35016;55.674;37.468;2024-03-07T09:02:55;99619.28;;;1.93;37.10
49178;BME280;35016;55.674;37.468;2024-03-07T09:05:27;99618.88;;;1.96;37.23
49178;BME280;35016;55.674;37.468;2024-03-07T09:07:56;99624.22;;;1.96;37.42
49178;BME280;35016;55.674;37.468;2024-03-07T09:10:23;99606.94;;;1.92;37.30
49178;BME280;35016;55.674;37.468;2024-03-07T09:13:34;99619.72;;;1.97;37.36
49178;BME280;35016;55.674;37.468;2024-03-07T09:16:02;99607.59;;;2.01;37.14
49178;BME280;35016;55.674;37.468;2024-03-07T09:18:31;99605.56;;;2.09;37.36
49178;BME280;35016;55.674;37.468;2024-03-07T09:28:37;99600.44;;;2.28;36.80
49178;BME280;35016;55.674;37.468;2024-03-07T09:31:04;99600.44;;;2.28;36.82
49178;BME280;35016;55.674;37.468;2024-03-07T09:33:33;99599.81;;;2.26;36.72
49178;BME280;35016;55.674;37.468;2024-03-07T09:36:05;99589.34;;;2.31;37.29
49178;BME280;35016;55.674;37.468;2024-03-07T09:38:34;99598.19;;;2.31;36.78
49178;BME280;35016;55.674;37.468;2024-03-07T09:41:03;99613.25;;;2.32;36.67
49178;BME280;35016;55.674;37.468;2024-03-07T09:43:47;99587.06;;;2.21;36.21
49178;BME280;35016;55.674;37.468;2024-03-07T09:47:46;99593.28;;;2.41;36.80
49178;BME280;35016;55.674;37.468;2024-03-07T09:55:06;99585.69;;;2.71;36.49
49178;BME280;35016;55.674;37.468;2024-03-07T09:57:39;99585.03;;;2.83;36.57
49178;BME280;35016;55.674;37.468;2024-03-07T10:00:18;99595.13;;;2.80;36.65
49178;BME280;35016;55.674;37.468;2024-03-07T10:03:05;99589.97;;;2.86;35.71
49178;BME280;35016;55.674;37.468;2024-03-07T10:08:59;99538.91;;;2.80;36.39
49178;BME280;35016;55.674;37.468;2024-03-07T10:11:35;99577.22;;;3.01;36.12
49178;BME280;35016;55.674;37.468;2024-03-07T10:14:03;99592.41;;;3.14;36.34
49178;BME280;35016;55.674;37.468;2024-03-07T10:16:31;99553.53;;;2.91;36.08
49178;BME280;35016;55.674;37.468;2024-03-07T10:18:59;99575.72;;;3.11;35.99
49178;BME280;35016;55.674;37.468;2024-03-07T10:21:28;99557.81;;;3.05;36.05
49178;BME280;35016;55.674;37.468;2024-03-07T10:24:06;99574.06;;;3.24;35.72
49178;BME280;35016;55.674;37.468;2024-03-07T10:26:35;99575.50;;;3.33;36.14
49178;BME280;35016;55.674;37.468;2024-03-07T10:29:03;99562.47;;;3.43;36.13
49178;BME280;35016;55.674;37.468;2024-03-07T10:31:34;99567.00;;;3.49;35.42
49178;BME280;35016;55.674;37.468;2024-03-07T10:34:05;99571.94;;;3.46;35.92
49178;BME280;35016;55.674;37.468;2024-03-07T10:36:32;99577.09;;;3.40;35.78
49178;BME280;35016;55.674;37.468;2024-03-07T10:39:03;99565.59;;;3.33;36.05
49178;BME280;35016;55.674;37.468;2024-03-07T10:41:45;99558.34;;;3.40;35.68
49178;BME280;35016;55.674;37.468;2024-03-07T10:44:20;99561.84;;;3.41;35.64
49178;BME280;35016;55.674;37.468;2024-03-07T10:47:07;99554.00;;;3.46;35.20
49178;BME280;35016;55.674;37.468;2024-03-07T10:49:37;99556.50;;;3.41;35.63
49178;BME280;35016;55.674;37.468;2024-03-07T10:52:13;99549.91;;;3.37;35.66
49178;BME280;35016;55.674;37.468;2024-03-07T10:55:12;99547.84;;;3.39;35.63
49178;BME280;35016;55.674;37.468;2024-03-07T10:57:55;99534.44;;;3.39;35.49
49178;BME280;35016;55.674;37.468;2024-03-07T11:00:27;99524.34;;;3.34;35.76
49178;BME280;35016;55.674;37.468;2024-03-07T11:06:16;99510.53;;;3.37;35.81
49178;BME280;35016;55.674;37.468;2024-03-07T11:08:56;99535.22;;;3.46;35.92
49178;BME280;35016;55.674;37.468;2024-03-07T11:11:53;99529.41;;;3.62;35.43
49178;BME280;35016;55.674;37.468;2024-03-07T11:14:25;99540.09;;;3.69;35.48
49178;BME280;35016;55.674;37.468;2024-03-07T11:16:59;99523.22;;;3.62;35.49
49178;BME280;35016;55.674;37.468;2024-03-07T11:19:32;99526.41;;;3.84;35.88
49178;BME280;35016;55.674;37.468;2024-03-07T11:22:09;99505.81;;;3.71;35.48
49178;BME280;35016;55.674;37.468;2024-03-07T11:25:02;99517.16;;;3.80;35.06
49178;BME280;35016;55.674;37.468;2024-03-07T11:27:38;99510.75;;;3.74;35.28
49178;BME280;35016;55.674;37.468;2024-03-07T11:30:08;99517.50;;;3.90;35.44
49178;BME280;35016;55.674;37.468;2024-03-07T11:35:35;99501.34;;;3.96;35.54
49178;BME280;35016;55.674;37.468;2024-03-07T11:42:55;99483.09;;;3.80;35.35
49178;BME280;35016;55.674;37.468;2024-03-07T11:45:45;99506.94;;;3.95;34.99
49178;BME280;35016;55.674;37.468;2024-03-07T11:48:23;99494.38;;;3.89;35.36
49178;BME280;35016;55.674;37.468;2024-03-07T11:50:53;99496.63;;;3.92;35.39
49178;BME280;35016;55.674;37.468;2024-03-07T11:53:22;99483.22;;;3.92;35.24
49178;BME280;35016;55.674;37.468;2024-03-07T11:55:52;99465.75;;;3.83;35.04
49178;BME280;35016;55.674;37.468;2024-03-07T11:58:38;99483.16;;;3.98;35.68
49178;BME280;35016;55.674;37.468;2024-03-07T12:01:14;99503.13;;;4.09;35.40
49178;BME280;35016;55.674;37.468;2024-03-07T12:07:00;99464.78;;;4.02;35.53
49178;BME280;35016;55.674;37.468;2024-03-07T12:09:30;99493.28;;;4.28;35.53
49178;BME280;35016;55.674;37.468;2024-03-07T12:11:58;99487.88;;;4.34;35.27
49178;BME280;35016;55.674;37.468;2024-03-07T12:14:43;99479.97;;;4.40;34.79
49178;BME280;35016;55.674;37.468;2024-03-07T12:21:08;99475.84;;;4.62;34.98
49178;BME280;35016;55.674;37.468;2024-03-07T12:23:40;99470.09;;;4.58;34.92
49178;BME280;35016;55.674;37.468;2024-03-07T12:26:08;99468.88;;;4.54;35.20
49178;BME280;35016;55.674;37.468;2024-03-07T12:28:38;99451.81;;;4.49;35.43
49178;BME280;35016;55.674;37.468;2024-03-07T12:31:19;99469.25;;;4.58;35.16
49178;BME280;35016;55.674;37.468;2024-03-07T12:33:54;99462.81;;;4.65;35.34
49178;BME280;35016;55.674;37.468;2024-03-07T12:36:31;99437.59;;;4.66;34.84
49178;BME280;35016;55.674;37.468;2024-03-07T12:39:26;99454.25;;;4.93;34.06
49178;BME280;35016;55.674;37.468;2024-03-07T12:42:40;99460.50;;;5.24;34.33
49178;BME280;35016;55.674;37.468;2024-03-07T12:48:51;99454.44;;;6.18;33.84
49178;BME280;35016;55.674;37.468;2024-03-07T12:52:01;99445.78;;;6.51;34.58
49178;BME280;35016;55.674;37.468;2024-03-07T12:54:29;99447.09;;;6.72;34.45
49178;BME280;35016;55.674;37.468;2024-03-07T12:56:57;99425.94;;;6.93;34.58
49178;BME280;35016;55.674;37.468;2024-03-07T12:59:24;99431.94;;;7.35;34.47
49178;BME280;35016;55.674;37.468;2024-03-07T13:06:36;99401.59;;;8.35;34.57
49178;BME280;35016;55.674;37.468;2024-03-07T13:09:05;99430.19;;;9.08;34.09
49178;BME280;35016;55.674;37.468;2024-03-07T13:11:39;99435.84;;;9.77;33.95
49178;BME280;35016;55.674;37.468;2024-03-07T13:14:17;99410.63;;;10.31;32.74
49178;BME280;35016;55.674;37.468;2024-03-07T13:16:49;99400.47;;;10.53;31.00
49178;BME280;35016;55.674;37.468;2024-03-07T13:26:54;99428.38;;;10.96;31.26
49178;BME280;35016;55.674;37.468;2024-03-07T13:36:45;99413.78;;;11.02;30.55
49178;BME280;35016;55.674;37.468;2024-03-07T13:39:13;99394.78;;;11.02;29.93
49178;BME280;35016;55.674;37.468;2024-03-07T13:41:43;99405.72;;;11.27;29.30
49178;BME280;35016;55.674;37.468;2024-03-07T13:44:21;99414.47;;;11.39;29.23
49178;BME280;35016;55.674;37.468;2024-03-07T13:46:56;99399.81;;;11.51;28.58
49178;BME280;35016;55.674;37.468;2024-03-07T13:49:27;99403.69;;;11.75;29.32
49178;BME280;35016;55.674;37.468;2024-03-07T13:51:54;99397.44;;;11.74;28.53
49178;BME280;35016;55.674;37.468;2024-03-07T13:54:29;99388.69;;;11.52;28.37
49178;BME280;35016;55.674;37.468;2024-03-07T14:06:03;99384.91;;;10.06;27.98
49178;BME280;35016;55.674;37.468;2024-03-07T14:20:54;99380.75;;;9.61;27.68
49178;BME280;35016;55.674;37.468;2024-03-07T14:29:41;99376.75;;;9.69;26.81
49178;BME280;35016;55.674;37.468;2024-03-07T14:36:02;99382.63;;;9.34;28.62
49178;BME280;35016;55.674;37.468;2024-03-07T14:38:52;99376.66;;;9.32;27.77
49178;BME280;35016;55.674;37.468;2024-03-07T14:41:49;99375.78;;;9.26;27.88
49178;BME280;35016;55.674;37.468;2024-03-07T14:44:28;99357.53;;;8.95;28.47